Mariq — SVA2152 — position and weather

sailwx.info

Track history (hours):
 
Tides and Currents Weather Stations Pressure Air Temp Water Temp Dewpoint Dewpoint Depression Visibility Wind Speed Wind Dir Waves Ship Positions

Mariq

Last reported at 2014-Jul-25 08:17 UTC. Time now 2014-Jul-25 09:03 UTC.
Position N 37°20' E 024°20'.

Length 57 m.

Type: Tanker. MMSI: 239758424.

Date/timePositionNaut miles runAvg speedWind from/ knotsBaromVisibWave heightAir tempDewpointWater temp
2014-Jul-25 08:17N 37°20' E 024°20'810.0
2014-Jul-25 07:30N 37°27' E 024°15'15 0.9
2014-Jul-24 15:33N 37°27' E 024°34'1110.6
2014-Jul-24 14:33N 37°23' E 024°46'1010.2
2014-Jul-24 13:33N 37°20' E 024°59'1010.3
2014-Jul-24 12:33N 37°18' E 025°11'1010.5
2014-Jul-24 11:33N 37°15' E 025°24'1010.5
2014-Jul-24 10:33N 37°11' E 025°36'10 9.7
2014-Jul-24 09:33N 37°05' E 025°45'9 9.2
2014-Jul-24 08:33N 36°58' E 025°53'6 5.8
2014-Jul-24 07:33N 36°54' E 025°59'0 0.0
2014-Jul-24 06:33N 36°54' E 025°59'0 0.0
2014-Jul-24 05:33N 36°54' E 025°59'0 0.0
2014-Jul-24 04:33N 36°54' E 025°59'0 0.0
2014-Jul-24 03:33N 36°54' E 025°59'0 0.0
2014-Jul-24 02:33N 36°54' E 025°59'0 0.0
2014-Jul-24 01:33N 36°54' E 025°59'0 0.0
2014-Jul-24 00:33N 36°54' E 025°59'4 4.1
2014-Jul-23 23:33N 36°58' E 026°01'9 9.2
2014-Jul-23 22:33N 37°02' E 026°11'9 9.4
2014-Jul-23 21:33N 37°06' E 026°22'10 9.5
2014-Jul-23 20:32N 37°11' E 026°33'24 1.3
2014-Jul-23 02:22N 37°23' E 026°59'0 0.1
2014-Jul-23 01:33N 37°23' E 026°59'45 8.4
2014-Jul-22 20:07N 36°41' E 027°21'5 9.2
2014-Jul-22 19:32N 36°39' E 027°27'  
2014-Jul-20 00:20N 37°18' E 026°38'4 4.8
2014-Jul-19 23:27N 37°19' E 026°33'0 0.0
2014-Jul-19 16:32N 37°19' E 026°33'0 0.0
2014-Jul-19 15:33N 37°19' E 026°33'0 0.0
2014-Jul-19 14:12N 37°19' E 026°33'12 0.3
2014-Jul-17 21:16N 37°14' E 026°46'8 9.7
2014-Jul-17 20:24N 37°17' E 026°36'1 0.1
2014-Jul-17 15:09N 37°17' E 026°36'6 9.7
2014-Jul-17 14:33N 37°13' E 026°41'51 1.2
2014-Jul-15 21:17N 36°38' E 027°28'7 9.4
2014-Jul-15 20:33N 36°42' E 027°21'18 8.9
2014-Jul-15 18:30N 36°59' E 027°11'1010.3
2014-Jul-15 17:32N 37°05' E 027°01'1210.2
2014-Jul-15 16:22N 37°13' E 026°50'8 9.7
2014-Jul-15 15:31N 37°15' E 026°40'  
Track history (hours):
 
Tides and Currents Weather Stations Pressure Air Temp Water Temp Dewpoint Dewpoint Depression Visibility Wind Speed Wind Dir Waves Ship Positions

Mariq

Last reported at 2014-Jul-25 08:17 UTC. Time now 2014-Jul-25 09:03 UTC.
Position N 37°20' E 024°20'.

Length 57 m.

Type: Tanker. MMSI: 239758424.

Date/timePositionNaut miles runAvg speedWind from/ knotsBaromVisibWave heightAir tempDewpointWater temp
2014-Jul-25 08:17N 37°20' E 024°20'810.0
2014-Jul-25 07:30N 37°27' E 024°15'15 0.9
2014-Jul-24 15:33N 37°27' E 024°34'1110.6
2014-Jul-24 14:33N 37°23' E 024°46'1010.2
2014-Jul-24 13:33N 37°20' E 024°59'1010.3
2014-Jul-24 12:33N 37°18' E 025°11'1010.5
2014-Jul-24 11:33N 37°15' E 025°24'1010.5
2014-Jul-24 10:33N 37°11' E 025°36'10 9.7
2014-Jul-24 09:33N 37°05' E 025°45'9 9.2
2014-Jul-24 08:33N 36°58' E 025°53'6 5.8
2014-Jul-24 07:33N 36°54' E 025°59'0 0.0
2014-Jul-24 06:33N 36°54' E 025°59'0 0.0
2014-Jul-24 05:33N 36°54' E 025°59'0 0.0
2014-Jul-24 04:33N 36°54' E 025°59'0 0.0
2014-Jul-24 03:33N 36°54' E 025°59'0 0.0
2014-Jul-24 02:33N 36°54' E 025°59'0 0.0
2014-Jul-24 01:33N 36°54' E 025°59'0 0.0
2014-Jul-24 00:33N 36°54' E 025°59'4 4.1
2014-Jul-23 23:33N 36°58' E 026°01'9 9.2
2014-Jul-23 22:33N 37°02' E 026°11'9 9.4
2014-Jul-23 21:33N 37°06' E 026°22'10 9.5
2014-Jul-23 20:32N 37°11' E 026°33'24 1.3
2014-Jul-23 02:22N 37°23' E 026°59'0 0.1
2014-Jul-23 01:33N 37°23' E 026°59'45 8.4
2014-Jul-22 20:07N 36°41' E 027°21'5 9.2
2014-Jul-22 19:32N 36°39' E 027°27'  
2014-Jul-20 00:20N 37°18' E 026°38'4 4.8
2014-Jul-19 23:27N 37°19' E 026°33'0 0.0
2014-Jul-19 16:32N 37°19' E 026°33'0 0.0
2014-Jul-19 15:33N 37°19' E 026°33'0 0.0
2014-Jul-19 14:12N 37°19' E 026°33'12 0.3
2014-Jul-17 21:16N 37°14' E 026°46'8 9.7
2014-Jul-17 20:24N 37°17' E 026°36'1 0.1
2014-Jul-17 15:09N 37°17' E 026°36'6 9.7
2014-Jul-17 14:33N 37°13' E 026°41'51 1.2
2014-Jul-15 21:17N 36°38' E 027°28'7 9.4
2014-Jul-15 20:33N 36°42' E 027°21'18 8.9
2014-Jul-15 18:30N 36°59' E 027°11'1010.3
2014-Jul-15 17:32N 37°05' E 027°01'1210.2
2014-Jul-15 16:22N 37°13' E 026°50'8 9.7
2014-Jul-15 15:31N 37°15' E 026°40'  

Dump ship's entire track history